Main page
METAR-TAF:

METAR-TAF

Airports :

Oslo Airport. Gardermoen

Oslo, Norway

latitude: 60-12N, longitude: 011-05E, elevation: 208 m

Current weather observation

The report was made 16 minutes ago, at 21:50 UTC
Wind 10 kt from the South/Southwest
Temperature 4°C
Humidity 70%
Pressure 984 hPa
Visibility 10 km or more
no clouds below 1500 m and no cumulonimbus

METAR: ENGM 172150Z 20010KT CAVOK 04/M01 Q0984 NOSIG

Time: 23:06 (22:06 UTC)

Forecast

Forecast valid from 17 at 18 UTC to 18 at 18 UTC
Wind 8 kt from the South
Visibility 10 km or more
Scattered clouds at a height of 4000 ft
Temporary
from 17 at 18 UTC to 17 at 21 UTC
Wind 15 kt from the South/Southwest with gusts up to 25 kt

TAF: ENGM 1718/1818 19008KT 9999 SCT040 TEMPO 1718/1721 20015G25KT

Weather observations and forecasts of more than 4000 airports (METAR and TAF reports).

The available stations are represented by yellow and red dots on the map.

Hover mouse over dot to see the name of the station.

Then click to see weather observations and forecasts.

To change the map : click on the green buttons with a black cross to zoom in, on the green button with a dash to zoom out, or on the green arrows for adjacent maps.


METAR-TAF: